Time;durP1;ratioP1;P1;durP2;ratioP2;P2;SDS_P1;SDS_P2;PMS_P1;PMS_P2;Temp;Humidity;BMP_temperature;BMP_pressure;BME280_temperature;BME280_humidity;BME280_pressure;Samples;Min_cycle;Max_cycle;Signal;HPM_P1;HPM_P2
2021/06/13 00:02:23;;;;;;;0.75;0.50;;;23.50;99.90;;;;;;5084371;28;20031;-64
2021/06/13 00:04:49;;;;;;;0.70;0.60;;;23.50;99.90;;;;;;5087894;28;20020;-63
2021/06/13 00:07:15;;;;;;;0.65;0.65;;;23.40;99.90;;;;;;5088416;28;20039;-63
2021/06/13 00:09:40;;;;;;;0.68;0.68;;;23.40;99.90;;;;;;5075275;28;20056;-63
2021/06/13 00:12:07;;;;;;;0.50;0.50;;;23.50;99.90;;;;;;5068937;28;20052;-63
2021/06/13 00:14:33;;;;;;;0.60;0.60;;;23.50;99.90;;;;;;5066743;28;20344;-63
2021/06/13 00:16:59;;;;;;;0.80;0.80;;;23.40;99.90;;;;;;5068392;28;20016;-63
2021/06/13 00:19:25;;;;;;;1.30;1.15;;;23.20;99.90;;;;;;5067929;28;20033;-63
2021/06/13 00:21:51;;;;;;;0.73;0.73;;;23.30;99.90;;;;;;5067914;28;20445;-63
2021/06/13 00:24:17;;;;;;;0.70;0.70;;;23.30;99.90;;;;;;5067635;28;20028;-63
2021/06/13 00:26:43;;;;;;;0.52;0.52;;;23.40;99.90;;;;;;5086415;28;20032;-64
2021/06/13 00:29:08;;;;;;;0.60;0.60;;;23.40;99.90;;;;;;5088792;28;20405;-64
2021/06/13 00:31:35;;;;;;;0.75;0.50;;;23.40;99.90;;;;;;5085956;28;20051;-64
2021/06/13 00:34:01;;;;;;;0.70;0.68;;;23.40;99.90;;;;;;5088108;28;20107;-65
2021/06/13 00:36:27;;;;;;;0.50;0.50;;;23.20;99.90;;;;;;5087384;28;20162;-64
2021/06/13 00:38:53;;;;;;;0.50;0.50;;;23.10;99.90;;;;;;5088515;28;20024;-64
2021/06/13 00:41:21;;;;;;;0.52;0.52;;;23.00;99.90;;;;;;5086324;28;20024;-63
2021/06/13 00:43:47;;;;;;;0.65;0.60;;;23.10;99.90;;;;;;5087772;28;20482;-63
2021/06/13 00:46:14;;;;;;;0.47;0.47;;;23.00;99.90;;;;;;5088545;28;20039;-63
2021/06/13 00:48:39;;;;;;;0.52;0.52;;;22.90;99.90;;;;;;5087914;28;20028;-63
2021/06/13 00:51:05;;;;;;;0.68;0.68;;;22.90;99.90;;;;;;5087767;28;20432;-63
2021/06/13 00:53:31;;;;;;;0.50;0.50;;;22.90;99.90;;;;;;5087540;28;20020;-63
2021/06/13 00:55:58;;;;;;;0.57;0.57;;;22.80;99.90;;;;;;5087943;28;20482;-63
2021/06/13 00:58:24;;;;;;;0.60;0.60;;;22.80;99.90;;;;;;5087648;28;20391;-64
2021/06/13 01:00:52;;;;;;;0.90;0.60;;;22.80;99.90;;;;;;5088080;28;20039;-64
2021/06/13 01:03:19;;;;;;;0.50;0.50;;;22.70;99.90;;;;;;5086973;28;20091;-63
2021/06/13 01:05:45;;;;;;;0.52;0.52;;;22.80;99.90;;;;;;5087622;28;20026;-63
2021/06/13 01:08:33;;;;;;;0.90;0.60;;;22.60;99.90;;;;;;5086119;28;20028;-63
2021/06/13 01:11:17;;;;;;;0.57;0.57;;;22.70;99.90;;;;;;5067352;28;20042;-63
2021/06/13 01:14:14;;;;;;;0.63;0.50;;;22.60;99.90;;;;;;5067312;28;20031;-63
2021/06/13 01:17:01;;;;;;;0.70;0.60;;;22.50;99.90;;;;;;5066479;28;20103;-63
2021/06/13 01:19:32;;;;;;;0.55;0.55;;;22.50;99.90;;;;;;5066465;28;20016;-63
2021/06/13 01:22:44;;;;;;;0.50;0.50;;;22.30;99.90;;;;;;5067236;28;20457;-63
2021/06/13 01:25:44;;;;;;;0.70;0.70;;;22.40;99.90;;;;;;5066980;28;20452;-63
2021/06/13 01:28:47;;;;;;;0.63;0.60;;;22.40;99.90;;;;;;5065833;28;20072;-63
2021/06/13 01:31:13;;;;;;;0.57;0.57;;;22.40;99.90;;;;;;5066891;28;20528;-64
2021/06/13 01:33:40;;;;;;;0.55;0.55;;;22.40;99.90;;;;;;5066972;28;20059;-64
2021/06/13 01:36:08;;;;;;;0.40;0.40;;;22.40;99.90;;;;;;5066755;28;20047;-64
2021/06/13 01:38:35;;;;;;;0.80;0.60;;;22.30;99.90;;;;;;5066727;28;20024;-64
2021/06/13 01:41:09;;;;;;;0.45;0.45;;;22.00;99.90;;;;;;5066139;28;20430;-63
2021/06/13 01:43:36;;;;;;;0.60;0.60;;;22.00;99.90;;;;;;5065980;28;20047;-63
2021/06/13 01:46:05;;;;;;;0.65;0.60;;;22.10;99.90;;;;;;5066792;28;20460;-63
2021/06/13 01:48:32;;;;;;;0.50;0.50;;;22.20;99.90;;;;;;5064726;28;20040;-63
2021/06/13 01:51:00;;;;;;;0.50;0.50;;;22.10;99.90;;;;;;5066164;28;20410;-63
2021/06/13 01:53:28;;;;;;;0.88;0.80;;;22.10;99.90;;;;;;5066359;28;20029;-62
2021/06/13 01:55:54;;;;;;;0.73;0.52;;;22.00;99.90;;;;;;5066537;28;20032;-62
2021/06/13 01:58:22;;;;;;;1.25;0.50;;;21.90;99.90;;;;;;5067063;28;20028;-62
2021/06/13 02:00:49;;;;;;;0.57;0.57;;;22.00;99.90;;;;;;5066470;28;20020;-63
2021/06/13 02:03:17;;;;;;;0.70;0.70;;;21.90;99.90;;;;;;5066040;28;20033;-62
2021/06/13 02:05:45;;;;;;;0.60;0.60;;;21.80;99.90;;;;;;5066158;28;21044;-62
2021/06/13 02:08:11;;;;;;;0.80;0.60;;;21.80;99.90;;;;;;5068348;28;20105;-63
2021/06/13 02:10:39;;;;;;;0.60;0.60;;;21.60;99.90;;;;;;5086193;28;20028;-63
2021/06/13 02:13:06;;;;;;;0.82;0.60;;;21.50;99.90;;;;;;5086346;28;20115;-63
2021/06/13 02:15:34;;;;;;;0.50;0.50;;;21.60;99.90;;;;;;5085985;28;20028;-63
2021/06/13 02:18:02;;;;;;;0.40;0.40;;;21.60;99.90;;;;;;5086285;28;20081;-63
2021/06/13 02:20:30;;;;;;;0.60;0.60;;;21.60;99.90;;;;;;5086232;28;20024;-63
2021/06/13 02:22:57;;;;;;;0.50;0.50;;;21.60;99.90;;;;;;5086050;28;20498;-63
2021/06/13 02:25:23;;;;;;;0.65;0.60;;;21.60;99.90;;;;;;5084740;28;20027;-63
2021/06/13 02:27:58;;;;;;;0.50;0.50;;;21.50;99.90;;;;;;5085737;28;20020;-63
2021/06/13 02:30:28;;;;;;;0.50;0.50;;;21.30;99.90;;;;;;5083812;28;20028;-63
2021/06/13 02:32:57;;;;;;;0.50;0.50;;;21.40;99.90;;;;;;5086590;28;20114;-63
2021/06/13 02:35:27;;;;;;;0.40;0.40;;;21.40;99.90;;;;;;5086103;28;20024;-63
2021/06/13 02:37:56;;;;;;;1.40;0.50;;;21.30;99.90;;;;;;5086474;28;20024;-63
2021/06/13 02:40:23;;;;;;;0.73;0.60;;;21.30;99.90;;;;;;5085304;28;20107;-63
2021/06/13 02:42:48;;;;;;;0.40;0.40;;;21.30;99.90;;;;;;5085677;28;20028;-62
2021/06/13 02:45:20;;;;;;;0.52;0.52;;;21.40;99.90;;;;;;5085481;28;20158;-62
2021/06/13 02:47:46;;;;;;;0.50;0.50;;;21.30;99.90;;;;;;5085655;28;20044;-62
2021/06/13 02:50:12;;;;;;;0.70;0.68;;;21.20;99.90;;;;;;5085371;28;20028;-63
2021/06/13 02:52:46;;;;;;;0.40;0.40;;;21.10;99.90;;;;;;5085327;28;20405;-63
2021/06/13 02:55:18;;;;;;;0.40;0.40;;;21.10;99.90;;;;;;5084747;28;20012;-63
2021/06/13 02:57:51;;;;;;;0.70;0.50;;;21.20;99.90;;;;;;5105744;28;20031;-63
2021/06/13 03:00:18;;;;;;;0.65;0.60;;;21.30;99.90;;;;;;5104582;28;20020;-63
2021/06/13 03:02:48;;;;;;;0.57;0.57;;;21.20;99.90;;;;;;5105512;28;20038;-63
2021/06/13 03:05:15;;;;;;;0.50;0.50;;;21.20;99.90;;;;;;5105744;28;20028;-63
2021/06/13 03:07:44;;;;;;;0.77;0.68;;;21.20;99.90;;;;;;5105927;28;20023;-63
2021/06/13 03:10:11;;;;;;;0.60;0.60;;;21.20;99.90;;;;;;5087195;28;20031;-63
2021/06/13 03:12:38;;;;;;;0.55;0.50;;;21.30;99.90;;;;;;5084984;28;20157;-64
2021/06/13 03:15:05;;;;;;;0.70;0.60;;;21.20;99.90;;;;;;5085364;28;20071;-63
2021/06/13 03:17:33;;;;;;;0.82;0.60;;;21.20;99.90;;;;;;5085240;28;20032;-63
2021/06/13 03:20:00;;;;;;;0.45;0.45;;;21.20;99.90;;;;;;5085036;28;20402;-62
2021/06/13 03:22:27;;;;;;;0.35;0.35;;;21.10;99.90;;;;;;5085712;28;20028;-63
2021/06/13 03:24:54;;;;;;;0.47;0.47;;;21.10;99.90;;;;;;5085882;28;20013;-63
2021/06/13 03:27:21;;;;;;;0.50;0.50;;;21.10;99.90;;;;;;5085007;28;20441;-63
2021/06/13 03:29:48;;;;;;;0.40;0.40;;;21.10;99.90;;;;;;5085219;28;20062;-63
2021/06/13 03:32:16;;;;;;;0.50;0.50;;;21.00;99.90;;;;;;5085175;28;20032;-63
2021/06/13 03:34:43;;;;;;;0.50;0.50;;;21.00;99.90;;;;;;5085174;28;20043;-63
2021/06/13 03:37:11;;;;;;;0.60;0.50;;;21.10;99.90;;;;;;5085153;28;20118;-63
2021/06/13 03:39:39;;;;;;;0.45;0.45;;;21.10;99.90;;;;;;5087325;28;20072;-63
2021/06/13 03:42:06;;;;;;;0.63;0.63;;;21.00;99.90;;;;;;5088374;28;20027;-63
2021/06/13 03:44:33;;;;;;;0.30;0.30;;;21.00;99.90;;;;;;5088893;28;20223;-63
2021/06/13 03:47:01;;;;;;;0.50;0.50;;;20.90;99.90;;;;;;5089498;28;20035;-63
2021/06/13 03:49:27;;;;;;;0.60;0.60;;;20.90;99.90;;;;;;5089204;28;20055;-63
2021/06/13 03:51:53;;;;;;;0.50;0.50;;;20.80;99.90;;;;;;5089693;28;20516;-63
2021/06/13 03:54:20;;;;;;;0.50;0.40;;;20.80;99.90;;;;;;5088941;28;20039;-63
2021/06/13 03:56:50;;;;;;;0.60;0.40;;;20.80;99.90;;;;;;5089132;28;20040;-63
2021/06/13 03:59:18;;;;;;;0.30;0.30;;;20.80;99.90;;;;;;5088506;28;20035;-63
2021/06/13 04:01:45;;;;;;;0.50;0.50;;;20.70;99.90;;;;;;5089073;28;20016;-63
2021/06/13 04:04:12;;;;;;;0.90;0.50;;;20.70;99.90;;;;;;5088834;28;20347;-63
2021/06/13 04:06:41;;;;;;;0.70;0.50;;;20.70;99.90;;;;;;5088703;28;20016;-63
2021/06/13 04:09:09;;;;;;;0.40;0.40;;;20.70;99.90;;;;;;5079256;28;20059;-63
2021/06/13 04:11:36;;;;;;;0.50;0.50;;;20.70;99.90;;;;;;5068144;28;20025;-63
2021/06/13 04:14:03;;;;;;;0.47;0.47;;;20.80;99.90;;;;;;5068593;28;20129;-63
2021/06/13 04:16:29;;;;;;;0.40;0.40;;;20.80;99.90;;;;;;5068286;28;20478;-63
2021/06/13 04:18:56;;;;;;;0.75;0.68;;;20.80;99.90;;;;;;5068267;28;20036;-63
2021/06/13 04:21:22;;;;;;;0.68;0.68;;;20.80;99.90;;;;;;5068566;28;20456;-63
2021/06/13 04:23:49;;;;;;;0.47;0.47;;;20.80;99.90;;;;;;5077746;28;20024;-63
2021/06/13 04:26:21;;;;;;;0.45;0.45;;;20.70;99.90;;;;;;5088647;28;20028;-63
2021/06/13 04:28:48;;;;;;;0.40;0.40;;;20.70;99.90;;;;;;5086193;28;20016;-63
2021/06/13 04:31:15;;;;;;;0.50;0.50;;;20.60;99.90;;;;;;5087696;28;20032;-63
2021/06/13 04:33:43;;;;;;;2.08;0.57;;;20.70;99.90;;;;;;5088104;28;20098;-63
2021/06/13 04:36:11;;;;;;;0.75;0.75;;;20.70;99.90;;;;;;5088419;28;20036;-63
2021/06/13 04:38:37;;;;;;;0.55;0.47;;;20.60;99.90;;;;;;5087312;28;20489;-63
2021/06/13 04:41:04;;;;;;;0.50;0.50;;;20.60;99.90;;;;;;5087741;28;20070;-63
2021/06/13 04:43:29;;;;;;;0.38;0.30;;;20.60;99.90;;;;;;5086925;28;20039;-63
2021/06/13 04:45:55;;;;;;;0.60;0.60;;;20.50;99.90;;;;;;5088077;28;20409;-62
2021/06/13 04:48:21;;;;;;;0.60;0.60;;;20.60;99.90;;;;;;5088407;28;20054;-63
2021/06/13 04:50:50;;;;;;;0.77;0.60;;;20.60;99.90;;;;;;5087448;28;20024;-63
2021/06/13 04:53:52;;;;;;;0.93;0.50;;;20.60;99.90;;;;;;5087916;28;20103;-63
2021/06/13 04:56:33;;;;;;;0.90;0.50;;;20.60;99.90;;;;;;5087879;28;20020;-63
2021/06/13 04:59:00;;;;;;;0.50;0.50;;;20.70;99.90;;;;;;5087565;28;20043;-63
2021/06/13 05:01:26;;;;;;;0.60;0.60;;;20.60;99.90;;;;;;5087102;28;20057;-63
2021/06/13 05:03:53;;;;;;;0.45;0.40;;;20.70;99.90;;;;;;5088068;28;20024;-64
2021/06/13 05:06:19;;;;;;;0.50;0.40;;;20.70;99.90;;;;;;5087805;28;20024;-63
2021/06/13 05:08:45;;;;;;;0.60;0.60;;;20.70;99.90;;;;;;5080838;28;20032;-63
2021/06/13 05:11:11;;;;;;;0.70;0.70;;;20.60;99.90;;;;;;5067292;28;20028;-63
2021/06/13 05:13:39;;;;;;;0.60;0.60;;;20.60;99.90;;;;;;5067194;28;20020;-63
2021/06/13 05:16:05;;;;;;;0.43;0.43;;;20.80;99.90;;;;;;5067508;28;20032;-63
2021/06/13 05:18:31;;;;;;;0.60;0.60;;;20.70;99.90;;;;;;5067133;28;20021;-63
2021/06/13 05:20:58;;;;;;;0.50;0.50;;;20.70;99.90;;;;;;5066912;28;20497;-63
2021/06/13 05:23:24;;;;;;;1.55;0.77;;;20.80;99.90;;;;;;5067603;28;20670;-63
2021/06/13 05:25:52;;;;;;;0.50;0.50;;;20.90;99.90;;;;;;5079187;28;20504;-63
2021/06/13 05:28:19;;;;;;;0.43;0.43;;;20.80;99.90;;;;;;5068362;28;20065;-63
2021/06/13 05:30:45;;;;;;;0.50;0.50;;;20.80;99.90;;;;;;5083088;28;20036;-64
2021/06/13 05:33:11;;;;;;;0.45;0.45;;;20.90;99.90;;;;;;5070132;28;20032;-63
2021/06/13 05:35:38;;;;;;;0.40;0.40;;;21.00;99.90;;;;;;5098591;28;20032;-63
2021/06/13 05:38:05;;;;;;;0.52;0.52;;;21.00;99.90;;;;;;5089489;27;20028;-62
2021/06/13 05:40:31;;;;;;;0.50;0.50;;;21.00;99.90;;;;;;5087649;28;20061;-62
2021/06/13 05:42:57;;;;;;;0.90;0.50;;;20.80;99.90;;;;;;5088182;28;20056;-62
2021/06/13 05:45:25;;;;;;;2.15;0.60;;;20.90;99.90;;;;;;5088414;28;20415;-63
2021/06/13 05:47:50;;;;;;;0.60;0.60;;;20.90;99.90;;;;;;5088639;28;20124;-63
2021/06/13 05:50:17;;;;;;;0.40;0.40;;;21.10;99.90;;;;;;5079414;28;20047;-63
2021/06/13 05:52:44;;;;;;;0.40;0.40;;;21.20;99.90;;;;;;5074588;28;20021;-63
2021/06/13 05:55:10;;;;;;;0.40;0.40;;;21.30;99.90;;;;;;5093086;28;20076;-63
2021/06/13 05:57:37;;;;;;;0.50;0.50;;;21.20;99.90;;;;;;5085852;28;20025;-63
2021/06/13 06:00:17;;;;;;;0.50;0.50;;;21.30;99.90;;;;;;5087791;28;20077;-63
2021/06/13 06:02:44;;;;;;;0.88;0.68;;;21.30;99.90;;;;;;5084528;28;20615;-63
2021/06/13 06:05:12;;;;;;;0.52;0.50;;;21.40;99.90;;;;;;5088144;28;20056;-62
2021/06/13 06:07:38;;;;;;;0.52;0.52;;;21.40;99.90;;;;;;5075023;28;20028;-62
2021/06/13 06:10:06;;;;;;;0.55;0.50;;;21.40;99.90;;;;;;5080541;28;20409;-63
2021/06/13 06:12:32;;;;;;;0.40;0.40;;;21.10;99.90;;;;;;5072435;28;20016;-63
2021/06/13 06:14:58;;;;;;;1.40;0.50;;;21.10;99.90;;;;;;5068289;28;20024;-64
2021/06/13 06:17:24;;;;;;;0.65;0.65;;;21.30;99.90;;;;;;5084359;28;20036;-64
2021/06/13 06:19:50;;;;;;;0.50;0.50;;;21.20;99.90;;;;;;5087980;28;20031;-64
2021/06/13 06:22:16;;;;;;;0.50;0.47;;;21.10;99.90;;;;;;5073389;28;20146;-64
2021/06/13 06:24:42;;;;;;;0.32;0.32;;;21.00;99.90;;;;;;5077725;28;20032;-64
2021/06/13 06:27:07;;;;;;;1.27;0.50;;;21.10;99.90;;;;;;5072911;28;20028;-64
2021/06/13 06:29:33;;;;;;;0.60;0.60;;;21.20;99.90;;;;;;5082102;28;20039;-64
2021/06/13 06:31:59;;;;;;;1.00;0.60;;;21.20;99.90;;;;;;5077370;28;20052;-64
2021/06/13 06:34:25;;;;;;;0.50;0.50;;;21.30;99.90;;;;;;5081337;28;20108;-64
2021/06/13 06:36:51;;;;;;;0.40;0.40;;;21.60;99.90;;;;;;5081146;28;20049;-63
2021/06/13 06:39:16;;;;;;;0.60;0.60;;;21.60;99.90;;;;;;5077955;28;20020;-63
2021/06/13 06:41:42;;;;;;;0.50;0.50;;;21.70;99.90;;;;;;5071097;28;20016;-63
2021/06/13 06:44:09;;;;;;;0.40;0.40;;;21.60;99.90;;;;;;5085625;28;20531;-63
2021/06/13 06:46:35;;;;;;;0.30;0.30;;;21.50;99.90;;;;;;5087765;28;20020;-63
2021/06/13 06:49:02;;;;;;;1.75;0.32;;;21.60;99.90;;;;;;5072248;28;20797;-63
2021/06/13 06:51:28;;;;;;;0.63;0.50;;;21.50;99.90;;;;;;5079476;28;20016;-63
2021/06/13 06:53:56;;;;;;;0.40;0.40;;;21.50;99.90;;;;;;5083391;28;20813;-62
2021/06/13 06:56:21;;;;;;;0.60;0.50;;;21.60;99.90;;;;;;5087049;28;20039;-63
2021/06/13 06:58:47;;;;;;;0.43;0.43;;;21.60;99.90;;;;;;5080693;28;20029;-63
2021/06/13 07:01:13;;;;;;;0.38;0.38;;;21.60;99.90;;;;;;5076463;28;20383;-63
2021/06/13 07:03:38;;;;;;;0.55;0.40;;;21.70;99.90;;;;;;5067461;28;20035;-63
2021/06/13 07:06:04;;;;;;;0.35;0.35;;;22.00;99.90;;;;;;5076433;28;20449;-64
2021/06/13 07:08:30;;;;;;;1.58;0.52;;;22.10;99.90;;;;;;5069980;28;20036;-65
2021/06/13 07:10:56;;;;;;;0.40;0.40;;;22.10;99.90;;;;;;5074921;28;20081;-63
2021/06/13 07:13:22;;;;;;;0.40;0.40;;;22.00;99.90;;;;;;5087248;28;20040;-63
2021/06/13 07:15:48;;;;;;;1.00;0.50;;;22.10;99.90;;;;;;5072094;28;20032;-63
2021/06/13 07:18:14;;;;;;;0.40;0.40;;;22.20;99.90;;;;;;5066211;28;20090;-63
2021/06/13 07:20:40;;;;;;;0.40;0.40;;;22.20;99.90;;;;;;5066314;28;20024;-63
2021/06/13 07:23:05;;;;;;;0.30;0.30;;;22.10;99.90;;;;;;5066338;28;20461;-63
2021/06/13 07:25:31;;;;;;;0.50;0.50;;;22.10;99.90;;;;;;5067545;28;20100;-62
2021/06/13 07:27:57;;;;;;;0.40;0.30;;;22.00;99.90;;;;;;5067870;28;20035;-63
2021/06/13 07:30:23;;;;;;;0.40;0.40;;;22.00;99.90;;;;;;5082396;28;20020;-63
2021/06/13 07:32:49;;;;;;;0.57;0.40;;;22.10;99.90;;;;;;5075402;28;20413;-62
2021/06/13 07:35:18;;;;;;;0.70;0.60;;;22.00;99.90;;;;;;5068929;28;20081;-63
2021/06/13 07:37:46;;;;;;;3.35;0.80;;;22.10;99.90;;;;;;5086586;28;20032;-64
2021/06/13 07:40:14;;;;;;;0.77;0.38;;;22.30;99.90;;;;;;5085626;28;20052;-61
2021/06/13 07:42:40;;;;;;;0.40;0.40;;;22.40;99.90;;;;;;5086409;28;20486;-61
2021/06/13 07:45:09;;;;;;;0.47;0.47;;;22.30;99.90;;;;;;5086156;28;20020;-61
2021/06/13 07:47:35;;;;;;;0.35;0.35;;;22.40;99.90;;;;;;5085380;28;20040;-60
2021/06/13 07:50:02;;;;;;;0.47;0.47;;;22.30;99.90;;;;;;5081795;28;20024;-68
2021/06/13 07:52:28;;;;;;;0.65;0.50;;;22.30;99.90;;;;;;5106474;28;20504;-61
2021/06/13 07:54:53;;;;;;;0.30;0.30;;;22.40;99.90;;;;;;5104436;28;20020;-61
2021/06/13 07:57:19;;;;;;;0.30;0.30;;;22.70;99.90;;;;;;5078345;28;20037;-60
2021/06/13 07:59:46;;;;;;;0.38;0.38;;;22.70;99.90;;;;;;5070227;28;20071;-61
2021/06/13 08:02:12;;;;;;;0.40;0.40;;;22.50;99.90;;;;;;5074804;28;20028;-61
2021/06/13 08:04:42;;;;;;;0.40;0.40;;;22.70;99.90;;;;;;5088808;28;20017;-61
2021/06/13 08:07:08;;;;;;;1.75;0.40;;;22.90;99.90;;;;;;5076717;28;20043;-60
2021/06/13 08:09:34;;;;;;;0.45;0.40;;;22.70;99.90;;;;;;5072904;28;20032;-60
2021/06/13 08:12:00;;;;;;;0.30;0.30;;;22.80;99.90;;;;;;5077735;28;20028;-60
2021/06/13 08:14:26;;;;;;;0.40;0.40;;;22.90;99.90;;;;;;5073452;28;20028;-61
2021/06/13 08:16:52;;;;;;;0.35;0.35;;;23.00;99.90;;;;;;5079141;28;20078;-60
2021/06/13 08:19:18;;;;;;;0.40;0.40;;;23.00;99.90;;;;;;5086448;28;20020;-60
2021/06/13 08:21:43;;;;;;;0.57;0.40;;;23.00;99.90;;;;;;5086402;28;20031;-61
2021/06/13 08:24:09;;;;;;;0.35;0.35;;;23.20;99.90;;;;;;5086833;28;20024;-61
2021/06/13 08:26:36;;;;;;;0.45;0.40;;;23.10;99.90;;;;;;5090433;28;20098;-61
2021/06/13 08:29:03;;;;;;;0.93;0.40;;;23.10;99.90;;;;;;5075808;28;20451;-61
2021/06/13 08:31:29;;;;;;;0.40;0.40;;;23.10;99.90;;;;;;5087090;28;20039;-60
2021/06/13 08:33:56;;;;;;;0.40;0.40;;;23.40;99.90;;;;;;5072019;28;20074;-61
2021/06/13 08:36:22;;;;;;;0.35;0.35;;;23.20;99.90;;;;;;5072457;28;20067;-61
2021/06/13 08:38:51;;;;;;;0.30;0.30;;;23.30;99.90;;;;;;5073698;28;20497;-61
2021/06/13 08:41:17;;;;;;;0.50;0.50;;;23.30;99.90;;;;;;5085725;28;20032;-59
2021/06/13 08:43:45;;;;;;;0.40;0.40;;;23.10;99.90;;;;;;5096160;28;20029;-59
2021/06/13 08:46:11;;;;;;;0.40;0.40;;;23.40;99.90;;;;;;5084063;28;20486;-60
2021/06/13 08:48:37;;;;;;;1.02;0.40;;;23.50;99.90;;;;;;5087073;28;20038;-60
2021/06/13 08:51:03;;;;;;;0.55;0.50;;;23.30;99.90;;;;;;5078702;28;20032;-60
2021/06/13 08:53:29;;;;;;;0.65;0.50;;;23.50;99.90;;;;;;5078786;28;20036;-61
2021/06/13 08:55:55;;;;;;;0.60;0.60;;;23.60;99.90;;;;;;5091338;28;20438;-60
2021/06/13 08:58:22;;;;;;;0.40;0.40;;;23.60;99.90;;;;;;5090320;28;20020;-63
2021/06/13 09:00:50;;;;;;;0.40;0.40;;;23.60;99.90;;;;;;5089422;28;20446;-62
2021/06/13 09:03:16;;;;;;;0.50;0.50;;;23.80;99.90;;;;;;5086696;28;20533;-61
2021/06/13 09:05:42;;;;;;;0.47;0.47;;;23.80;99.90;;;;;;5080237;28;20423;-60
2021/06/13 09:08:10;;;;;;;0.55;0.55;;;23.80;99.90;;;;;;5077595;28;20104;-60
2021/06/13 09:10:39;;;;;;;0.57;0.57;;;23.60;99.90;;;;;;5075579;28;20375;-60
2021/06/13 09:13:12;;;;;;;0.77;0.70;;;23.60;99.90;;;;;;5089686;28;20051;-59
2021/06/13 09:15:39;;;;;;;0.60;0.60;;;23.60;99.90;;;;;;5089531;28;20536;-59
2021/06/13 09:18:08;;;;;;;0.40;0.40;;;23.80;99.90;;;;;;5075747;28;20746;-59
2021/06/13 09:20:34;;;;;;;0.50;0.50;;;24.00;99.90;;;;;;5069464;28;20021;-59
2021/06/13 09:23:15;;;;;;;0.40;0.40;;;24.10;99.90;;;;;;5068706;28;20675;-60
2021/06/13 09:25:43;;;;;;;0.45;0.43;;;24.10;99.90;;;;;;5068534;28;20096;-59
2021/06/13 09:28:12;;;;;;;0.50;0.50;;;24.10;99.90;;;;;;5069946;28;20025;-59
2021/06/13 09:30:41;;;;;;;0.32;0.32;;;24.10;99.90;;;;;;5068299;28;20025;-59
2021/06/13 09:33:13;;;;;;;0.40;0.40;;;24.20;99.90;;;;;;5084840;28;20031;-59
2021/06/13 09:35:41;;;;;;;0.47;0.47;;;24.30;99.90;;;;;;5080987;28;20596;-59
2021/06/13 09:38:15;;;;;;;0.43;0.43;;;24.20;99.90;;;;;;5085690;28;20036;-59
2021/06/13 09:40:44;;;;;;;0.70;0.70;;;24.10;99.90;;;;;;5089156;28;20028;-59
2021/06/13 09:43:25;;;;;;;0.63;0.63;;;24.00;99.90;;;;;;5076524;28;20032;-59
2021/06/13 09:45:55;;;;;;;0.70;0.70;;;24.00;99.90;;;;;;5069662;28;20025;-59
2021/06/13 09:48:21;;;;;;;0.60;0.60;;;24.20;99.90;;;;;;5069242;28;20133;-59
2021/06/13 09:51:00;;;;;;;1.00;0.60;;;24.20;99.90;;;;;;5068482;28;20036;-60
2021/06/13 09:53:35;;;;;;;0.60;0.60;;;24.20;99.90;;;;;;5068650;28;20066;-60
2021/06/13 09:56:14;;;;;;;0.77;0.70;;;24.30;99.90;;;;;;5074822;28;20055;-60
2021/06/13 09:58:51;;;;;;;0.40;0.40;;;24.40;99.90;;;;;;5087605;28;20043;-61
2021/06/13 10:01:18;;;;;;;0.68;0.68;;;24.50;99.90;;;;;;5088921;28;20028;-61
2021/06/13 10:03:47;;;;;;;0.80;0.57;;;24.70;99.90;;;;;;5088165;28;20401;-61
2021/06/13 10:06:17;;;;;;;1.00;0.75;;;24.60;99.90;;;;;;5080675;28;20042;-61
2021/06/13 10:08:43;;;;;;;0.63;0.63;;;24.50;99.90;;;;;;5087123;28;20107;-60
2021/06/13 10:11:10;;;;;;;1.55;0.50;;;24.50;99.90;;;;;;5087093;28;20154;-60
2021/06/13 10:13:53;;;;;;;1.23;0.57;;;24.70;99.90;;;;;;5086898;28;20039;-59
2021/06/13 10:16:23;;;;;;;1.67;0.55;;;24.80;99.90;;;;;;5087236;28;20036;-59
2021/06/13 10:19:03;;;;;;;0.70;0.60;;;25.00;99.90;;;;;;5086059;28;20028;-59
2021/06/13 10:21:35;;;;;;;0.80;0.50;;;24.90;99.90;;;;;;5085993;28;20425;-60
2021/06/13 10:24:03;;;;;;;0.60;0.60;;;24.80;99.90;;;;;;5073010;28;20035;-60
2021/06/13 10:26:29;;;;;;;0.60;0.60;;;24.80;99.90;;;;;;5066742;28;20414;-59
2021/06/13 10:28:55;;;;;;;1.80;1.58;;;24.90;99.90;;;;;;5080075;28;20031;-58
2021/06/13 10:31:21;;;;;;;1.15;1.02;;;24.80;99.90;;;;;;5086999;28;20035;-60
2021/06/13 10:33:47;;;;;;;0.70;0.70;;;24.90;99.90;;;;;;5085791;28;20016;-62
2021/06/13 10:36:13;;;;;;;0.60;0.60;;;25.00;99.90;;;;;;5084444;28;20036;-58
2021/06/13 10:38:40;;;;;;;0.68;0.50;;;25.20;99.90;;;;;;5085764;28;20016;-59
2021/06/13 10:41:05;;;;;;;0.93;0.73;;;25.20;99.90;;;;;;5081394;28;20082;-59
2021/06/13 10:43:32;;;;;;;0.77;0.70;;;25.30;99.90;;;;;;5084718;28;20418;-58
2021/06/13 10:46:16;;;;;;;0.60;0.60;;;25.30;99.90;;;;;;5081272;28;20180;-59
2021/06/13 10:48:49;;;;;;;0.60;0.60;;;25.50;99.90;;;;;;5065094;28;20099;-61
2021/06/13 10:51:27;;;;;;;0.50;0.50;;;25.60;99.90;;;;;;5065110;28;20299;-59
2021/06/13 10:53:54;;;;;;;0.60;0.60;;;25.60;99.90;;;;;;5064876;28;20056;-60
2021/06/13 10:56:25;;;;;;;0.50;0.50;;;25.70;99.90;;;;;;5076752;28;20028;-59
2021/06/13 10:58:56;;;;;;;0.82;0.82;;;25.80;99.90;;;;;;5070104;28;21109;-59
2021/06/13 11:01:33;;;;;;;0.70;0.70;;;25.90;99.90;;;;;;5079714;28;20073;-59
2021/06/13 11:04:04;;;;;;;1.35;0.90;;;25.80;99.90;;;;;;5076300;28;20103;-59
2021/06/13 11:06:36;;;;;;;0.75;0.75;;;26.00;99.90;;;;;;5078171;28;20637;-59
2021/06/13 11:09:05;;;;;;;1.38;0.70;;;26.00;99.90;;;;;;5069433;28;20069;-59
2021/06/13 11:11:38;;;;;;;0.60;0.60;;;26.20;99.90;;;;;;5083660;28;20120;-59
2021/06/13 11:14:24;;;;;;;1.88;0.80;;;26.20;99.90;;;;;;5075116;28;20429;-59
2021/06/13 11:16:54;;;;;;;1.30;0.80;;;26.10;99.90;;;;;;5065318;28;20101;-59
2021/06/13 11:19:29;;;;;;;0.57;0.57;;;26.10;99.90;;;;;;5073181;28;20113;-59
2021/06/13 11:22:33;;;;;;;0.57;0.57;;;26.40;99.90;;;;;;5064672;28;20021;-58
2021/06/13 11:25:00;;;;;;;0.70;0.70;;;26.40;99.90;;;;;;5074902;28;20043;-57
2021/06/13 11:27:28;;;;;;;1.42;0.95;;;26.50;99.90;;;;;;5082993;28;20039;-58
2021/06/13 11:29:59;;;;;;;0.68;0.68;;;26.20;99.90;;;;;;5069970;28;20025;-60
2021/06/13 11:32:53;;;;;;;1.00;0.95;;;26.50;99.90;;;;;;5075954;28;20028;-60
2021/06/13 11:35:26;;;;;;;0.70;0.70;;;26.60;99.90;;;;;;5075858;28;20040;-60
2021/06/13 11:38:11;;;;;;;0.67;0.67;;;26.80;99.90;;;;;;5077238;28;20084;-61
2021/06/13 11:40:46;;;;;;;1.73;1.00;;;26.90;99.90;;;;;;5064457;28;20031;-59
2021/06/13 11:43:13;;;;;;;0.70;0.70;;;27.10;99.90;;;;;;5063836;28;20041;-60
2021/06/13 11:46:03;;;;;;;0.77;0.77;;;27.30;99.90;;;;;;5073374;28;20023;-59
2021/06/13 11:48:31;;;;;;;0.65;0.65;;;27.40;99.90;;;;;;5079640;28;20121;-59
2021/06/13 11:51:01;;;;;;;1.55;0.93;;;27.40;99.90;;;;;;5069442;28;20108;-58
2021/06/13 11:53:52;;;;;;;1.20;1.08;;;27.10;99.90;;;;;;5068844;28;20224;-59
2021/06/13 11:56:50;;;;;;;1.73;1.10;;;27.20;99.90;;;;;;5071497;28;20024;-58
2021/06/13 11:59:21;;;;;;;2.97;0.93;;;27.20;99.90;;;;;;5081137;28;20029;-58
2021/06/13 12:01:54;;;;;;;0.70;0.70;;;27.60;99.90;;;;;;5079033;28;20024;-60
2021/06/13 12:04:20;;;;;;;0.80;0.80;;;27.70;99.90;;;;;;5083941;28;20072;-59
2021/06/13 12:06:46;;;;;;;1.20;0.80;;;27.90;99.90;;;;;;5083254;28;20079;-58
2021/06/13 12:09:15;;;;;;;0.63;0.63;;;28.20;99.90;;;;;;5079333;28;20021;-59
2021/06/13 12:11:55;;;;;;;1.30;0.90;;;28.40;99.90;;;;;;5078683;28;20024;-58
2021/06/13 12:14:36;;;;;;;1.80;1.13;;;28.50;99.90;;;;;;5077510;28;20063;-59
2021/06/13 12:17:10;;;;;;;1.33;0.93;;;28.80;99.90;;;;;;5071723;28;20402;-59
2021/06/13 12:19:40;;;;;;;0.90;0.80;;;28.80;99.90;;;;;;5072419;28;20710;-59
2021/06/13 12:27:39;;;;;;;0.80;0.80;;;28.60;99.90;;;;;;5071401;28;20074;-59
2021/06/13 12:30:23;;;;;;;0.80;0.80;;;28.90;99.90;;;;;;5081223;28;20382;-60
2021/06/13 12:32:58;;;;;;;0.93;0.90;;;29.10;99.90;;;;;;5072842;28;20493;-61
2021/06/13 12:35:30;;;;;;;0.80;0.80;;;29.10;99.90;;;;;;5080754;28;20024;-61
2021/06/13 12:38:08;;;;;;;1.00;0.90;;;29.40;99.90;;;;;;5080975;28;20035;-61
2021/06/13 12:40:44;;;;;;;1.38;1.02;;;29.10;99.90;;;;;;5080169;28;20039;-62
2021/06/13 12:43:11;;;;;;;0.90;0.90;;;28.90;99.90;;;;;;5074961;28;20469;-60
2021/06/13 12:45:39;;;;;;;0.90;0.77;;;29.30;99.90;;;;;;5080143;28;20035;-62
2021/06/13 12:48:08;;;;;;;0.60;0.60;;;29.20;99.90;;;;;;5071714;28;20585;-60
2021/06/13 12:50:40;;;;;;;0.60;0.60;;;29.30;99.90;;;;;;5078596;28;20055;-61
2021/06/13 12:53:08;;;;;;;0.75;0.70;;;29.50;99.90;;;;;;5076005;28;20036;-60
2021/06/13 12:55:43;;;;;;;0.70;0.70;;;29.30;99.90;;;;;;5080914;28;20482;-60
2021/06/13 12:58:11;;;;;;;0.77;0.77;;;29.50;99.90;;;;;;5070182;28;20028;-61
2021/06/13 13:00:38;;;;;;;0.70;0.70;;;29.40;99.90;;;;;;5080294;28;20071;-61
2021/06/13 13:03:15;;;;;;;0.82;0.82;;;29.60;99.90;;;;;;5074236;28;20029;-60
2021/06/13 13:05:44;;;;;;;0.77;0.77;;;29.90;99.90;;;;;;5071214;28;20409;-60